D/T METAR WX W/DIR W/SPE G/SPE TEMP DEWP
5/06/20 06:50 EGDM 050550Z 30011KT 9999 FEW028 BKN048 11/08 Q0997 RMK BLU WNW (300°) 12.7mph 11°C 8°C
5/06/20 05:50 EGDM 050450Z AUTO 30007KT //// SCT040/// BKN046/// 10/10 Q0997 WNW (300°) 8.1mph 10°C 10°C
5/06/20 04:50 EGDM 050350Z AUTO 29008KT //// BKN050/// 10/10 Q0997 WNW (290°) 9.2mph 10°C 10°C
5/06/20 03:50 EGDM 050250Z AUTO 26009KT //// BKN049/// 11/10 Q0997 W (260°) 10.4mph 11°C 10°C
5/06/20 02:50 EGDM 050150Z AUTO 24008KT //// RA FEW006/// BKN043/// 11/10 Q0998 RA WSW (240°) 9.2mph 11°C 10°C
5/06/20 01:50 EGDM 050050Z AUTO 24008KT //// SCT008/// SCT015/// BKN060/// 11/10 Q0999 WSW (240°) 9.2mph 11°C 10°C
5/06/20 00:50 EGDM 042350Z AUTO 23007KT //// BKN015/// SCT023/// 10/09 Q0999 SW (230°) 8.1mph 10°C 9°C
4/06/20 23:50 EGDM 042250Z AUTO 25009KT //// FEW009/// BKN012/// BKN070/// 11/09 Q1000 WSW (250°) 10.4mph 11°C 9°C
4/06/20 22:50 EGDM 042150Z AUTO 25006KT //// BKN060/// 11/09 Q1001 WSW (250°) 6.9mph 11°C 9°C
4/06/20 21:50 EGDM 042050Z AUTO 27009KT //// OVC050/// 11/09 Q1001 W (270°) 10.4mph 11°C 9°C
4/06/20 20:50 EGDM 041950Z AUTO 27008KT //// BKN050/// 12/09 Q1001 W (270°) 9.2mph 12°C 9°C
4/06/20 19:50 EGDM 041850Z AUTO 28011KT //// BKN050/// 12/08 Q1002 W (280°) 12.7mph 12°C 8°C
4/06/20 18:50 EGDM 041750Z AUTO 29014KT //// SCT031/// BKN050/// 13/07 Q1002 WNW (290°) 16.1mph 13°C 7°C
4/06/20 17:50 EGDM 041650Z AUTO 31013KT //// BKN050/// 14/06 Q1002 NW (310°) 15.0mph 14°C 6°C
4/06/20 16:50 EGDM 041550Z AUTO 28012KT //// SCT039/// SCT044/// BKN050/// 15/07 Q1002 W (280°) 13.8mph 15°C 7°C
4/06/20 15:50 EGDM 041450Z 26012KT 9999 FEW040 BKN060 14/08 Q1003 NOSIG RMK BLU BLU W (260°) 13.8mph 14°C 8°C
4/06/20 15:20 EGDM 041420Z 28009KT 9999 FEW040 BKN050 14/06 Q1003 NOSIG RMK BLU BLU W (280°) 10.4mph 14°C 6°C
4/06/20 14:50 EGDM 041350Z 30011KT 9999 FEW038 BKN050 14/06 Q1003 NOSIG RMK BLU BLU WNW (300°) 12.7mph 14°C 6°C
4/06/20 14:20 EGDM 041320Z 29012KT 9999 SCT037 BKN050 BKN250 15/05 Q1003 NOSIG RMK BLU BLU WNW (290°) 13.8mph 15°C 5°C
4/06/20 13:50 EGDM 041250Z 32011KT 9999 FEW037 SCT050 BKN250 15/06 Q1004 NOSIG RMK BLU BLU NW (320°) 12.7mph 15°C 6°C
4/06/20 13:20 EGDM 041220Z 31011KT 9999 SCT035 SCT050 BKN130 15/05 Q1004 NOSIG RMK BLU BLU NW (310°) 12.7mph 15°C 5°C
4/06/20 12:50 EGDM 041150Z 33011KT 9999 SCT032 BKN130 15/06 Q1004 NOSIG RMK BLU BLU NNW (330°) 12.7mph 15°C 6°C
4/06/20 11:50 EGDM 041050Z 33012KT 9999 SCT030 BKN120 14/05 Q1004 NOSIG RMK BLU BLU NNW (330°) 13.8mph 14°C 5°C
4/06/20 11:21 EGDM 041021Z 34010KT 9999 SCT026 BKN130 13/06 Q1004 NOSIG RMK BLU BLU NNW (340°) 11.5mph 13°C 6°C
4/06/20 10:50 EGDM 040950Z 34011KT 9999 SCT023 BKN140 13/07 Q1005 BECMG SCT025 RMK WHT BECMG BLU NNW (340°) 12.7mph 13°C 7°C
4/06/20 10:20 EGDM 040920Z 34011KT 9999 SCT020 SCT025 BKN250 13/07 Q1005 BECMG SCT025 RMK WHT BECMG BLU NNW (340°) 12.7mph 13°C 7°C
4/06/20 09:50 EGDM 040850Z 33011KT 9999 SCT018 SCT023 BKN250 12/07 Q1005 BECMG SCT025 RMK WHT BECMG BLU NNW (330°) 12.7mph 12°C 7°C
4/06/20 09:22 EGDM 040822Z 35012KT 9999 SCT017 SCT022 BKN250 12/07 Q1005 BECMG SCT025 RMK WHT BECMG BLU N (350°) 13.8mph 12°C 7°C
4/06/20 08:50 EGDM 040750Z 36014KT 9999 BKN017 11/07 Q1005 BECMG SCT025 RMK WHT BECMG BLU N (360°) 16.1mph 11°C 7°C
4/06/20 07:50 EGDM 040650Z 35012KT 9999 BKN017 BKN250 10/07 Q1005 RMK WHT N (350°) 13.8mph 10°C 7°C
4/06/20 06:50 EGDM 040550Z 35013KT 9999 FEW015 BKN250 10/07 Q1005 RMK BLU N (350°) 15.0mph 10°C 7°C
4/06/20 05:50 EGDM 040450Z AUTO 35010KT //// FEW045/// 09/06 Q1005 N (350°) 11.5mph 9°C 6°C
4/06/20 04:50 EGDM 040350Z AUTO 35012KT //// FEW038/// BKN045/// BKN060/// 09/06 Q1006 N (350°) 13.8mph 9°C 6°C
4/06/20 03:50 EGDM 040250Z AUTO 35011KT //// SCT040/// BKN070/// 09/07 Q1005 N (350°) 12.7mph 9°C 7°C
4/06/20 02:50 EGDM 040150Z AUTO 36012KT //// FEW011/// SCT015/// BKN032/// 10/07 Q1006 N (360°) 13.8mph 10°C 7°C
4/06/20 01:50 EGDM 040050Z AUTO 36012KT //// OVC008/// 10/08 Q1007 N (360°) 13.8mph 10°C 8°C
4/06/20 00:50 EGDM 032350Z AUTO 01014KT //// OVC007/// 10/09 Q1007 N (10°) 16.1mph 10°C 9°C
3/06/20 23:50 EGDM 032250Z AUTO 01014KT //// -DZ BKN007/// SCT014/// 11/09 Q1007 -DZ N (10°) 16.1mph 11°C 9°C
3/06/20 22:50 EGDM 032150Z AUTO 02013KT //// -RADZ BKN012/// 12/10 Q1007 -RA DZ NNE (20°) 15.0mph 12°C 10°C
3/06/20 21:50 EGDM 032050Z AUTO 01011KT //// SCT013/// BKN050/// 13/10 Q1007 N (10°) 12.7mph 13°C 10°C
3/06/20 20:50 EGDM 031950Z AUTO 02012KT //// FEW016/// OVC050/// 13/11 Q1007 NNE (20°) 13.8mph 13°C 11°C
3/06/20 19:50 EGDM 031850Z AUTO 02012KT //// FEW016/// OVC050/// 14/11 Q1007 NNE (20°) 13.8mph 14°C 11°C
3/06/20 18:50 EGDM 031750Z AUTO 04011KT //// BKN050/// 15/10 Q1007 NE (40°) 12.7mph 15°C 10°C
3/06/20 17:50 EGDM 031650Z AUTO 04010KT //// FEW032/// BKN044/// 15/11 Q1007 NE (40°) 11.5mph 15°C 11°C
3/06/20 16:50 EGDM 031550Z AUTO 04014KT //// FEW031/// BKN036/// 16/10 Q1007 NE (40°) 16.1mph 16°C 10°C
3/06/20 15:50 EGDM 031450Z 03011KT 9999 -RA FEW032 SCT050 BKN070 16/10 Q1007 NOSIG RMK BLU BLU -RA NNE (30°) 12.7mph 16°C 10°C
3/06/20 15:20 EGDM 031420Z 03010KT 9999 FEW030 SCT050 OVC070 16/10 Q1007 NOSIG RMK BLU BLU NNE (30°) 11.5mph 16°C 10°C
3/06/20 14:50 EGDM 031350Z 02008KT 9999 FEW030 OVC070 16/10 Q1007 NOSIG RMK BLU BLU NNE (20°) 9.2mph 16°C 10°C
3/06/20 13:50 EGDM 031250Z 02009KT 9999 FEW022 SCT050 OVC070 16/08 Q1007 NOSIG RMK BLU BLU NNE (20°) 10.4mph 16°C 8°C
3/06/20 13:20 EGDM 031220Z 02006KT 9999 -RA FEW018 SCT050 OVC070 16/10 Q1008 NOSIG RMK BLU BLU -RA NNE (20°) 6.9mph 16°C 10°C
3/06/20 11:50 EGDM 031050Z 36009KT 9999 -RA SCT050 OVC070 17/11 Q1008 NOSIG RMK BLU BLU -RA N (360°) 10.4mph 17°C 11°C
3/06/20 11:20 EGDM 031020Z 35008KT 9999 -RA SCT050 OVC080 17/12 Q1008 NOSIG RMK BLU BLU -RA N (350°) 9.2mph 17°C 12°C
3/06/20 10:50 EGDM 030950Z 35007KT 9999 -RA SCT050 OVC080 17/11 Q1008 NOSIG RMK BLU BLU -RA N (350°) 8.1mph 17°C 11°C
3/06/20 10:20 EGDM 030920Z 36008KT CAVOK 17/11 Q1008 NOSIG RMK BLU BLU N (360°) 9.2mph 17°C 11°C
3/06/20 09:50 EGDM 030850Z 01006KT CAVOK 17/12 Q1008 NOSIG RMK BLU BLU N (10°) 6.9mph 17°C 12°C
3/06/20 09:20 EGDM 030820Z 35005KT 9999 -RA FEW040 SCT060 OVC080 17/11 Q1008 NOSIG RMK BLU BLU -RA N (350°) 5.8mph 17°C 11°C
3/06/20 07:50 EGDM 030650Z 30002KT 9999 -RA FEW015 SCT060 OVC090 16/11 Q1009 RMK BLU -RA WNW (300°) 2.3mph 16°C 11°C
3/06/20 06:50 EGDM 030550Z 11003KT CAVOK 14/12 Q1009 RMK BLU ESE (110°) 3.5mph 14°C 12°C
3/06/20 05:50 EGDM 030450Z AUTO 29004KT //// -RA OVC050/// 14/11 Q1010 -RA WNW (290°) 4.6mph 14°C 11°C
3/06/20 04:50 EGDM 030350Z AUTO 32006KT //// -RA OVC050/// 15/10 Q1010 -RA NW (320°) 6.9mph 15°C 10°C
3/06/20 03:50 EGDM 030250Z AUTO 30006KT //// BKN050/// SCT150/// 15/09 Q1010 WNW (300°) 6.9mph 15°C 9°C
3/06/20 02:50 EGDM 030150Z AUTO 31007KT //// OVC140/// 14/09 Q1011 NW (310°) 8.1mph 14°C 9°C
3/06/20 01:50 EGDM 030050Z AUTO 30004KT //// BKN160/// 15/10 Q1012 WNW (300°) 4.6mph 15°C 10°C
3/06/20 00:50 EGDM 022350Z AUTO 29003KT //// BKN160/// BKN230/// 15/10 Q1013 WNW (290°) 3.5mph 15°C 10°C
2/06/20 23:50 EGDM 022250Z AUTO 36002KT //// BKN150/// 16/09 Q1013 N (360°) 2.3mph 16°C 9°C
2/06/20 22:50 EGDM 022150Z AUTO 31006KT //// SCT200/// 16/09 Q1014 NW (310°) 6.9mph 16°C 9°C
2/06/20 21:50 EGDM 022050Z AUTO 30006KT //// FEW210/// 18/09 Q1014 WNW (300°) 6.9mph 18°C 9°C
2/06/20 20:50 EGDM 021950Z AUTO 35003KT //// NCD 20/05 Q1015 N (350°) 3.5mph 20°C 5°C
2/06/20 19:50 EGDM 021850Z AUTO 01007KT //// NCD 22/04 Q1015 N (10°) 8.1mph 22°C 4°C
2/06/20 18:50 EGDM 021750Z AUTO 35010KT //// NCD 23/05 Q1015 N (350°) 11.5mph 23°C 5°C
2/06/20 17:50 EGDM 021650Z AUTO 34007KT //// NCD 24/07 Q1016 NNW (340°) 8.1mph 24°C 7°C
2/06/20 16:50 EGDM 021550Z AUTO 34008KT //// NCD 25/06 Q1017 NNW (340°) 9.2mph 25°C 6°C
2/06/20 16:20 EGDM 021520Z 34009KT CAVOK 24/06 Q1017 NOSIG RMK BLU BLU NNW (340°) 10.4mph 24°C 6°C
2/06/20 15:50 EGDM 021450Z 34007KT CAVOK 24/07 Q1017 NOSIG RMK BLU BLU NNW (340°) 8.1mph 24°C 7°C
2/06/20 15:20 EGDM 021420Z 34009KT CAVOK 24/05 Q1018 NOSIG RMK BLU BLU NNW (340°) 10.4mph 24°C 5°C
2/06/20 14:50 EGDM 021350Z 01008KT CAVOK 24/08 Q1018 NOSIG RMK BLU BLU N (10°) 9.2mph 24°C 8°C
2/06/20 14:20 EGDM 021320Z 36008KT CAVOK 23/07 Q1018 NOSIG RMK BLU BLU N (360°) 9.2mph 23°C 7°C
2/06/20 13:50 EGDM 021250Z 34010KT CAVOK 24/06 Q1019 NOSIG RMK BLU BLU NNW (340°) 11.5mph 24°C 6°C
2/06/20 13:20 EGDM 021220Z 36008KT CAVOK 23/07 Q1019 NOSIG RMK BLU BLU N (360°) 9.2mph 23°C 7°C
2/06/20 12:50 EGDM 021150Z 35010KT CAVOK 23/07 Q1019 NOSIG RMK BLU BLU N (350°) 11.5mph 23°C 7°C
2/06/20 11:50 EGDM 021050Z 36009KT CAVOK 22/08 Q1020 NOSIG RMK BLU BLU N (360°) 10.4mph 22°C 8°C
2/06/20 11:20 EGDM 021020Z 35010KT CAVOK 21/07 Q1020 NOSIG RMK BLU BLU N (350°) 11.5mph 21°C 7°C
2/06/20 10:50 EGDM 020950Z 01010KT CAVOK 22/10 Q1020 NOSIG RMK BLU BLU N (10°) 11.5mph 22°C 10°C
2/06/20 10:20 EGDM 020920Z 36009KT CAVOK 20/10 Q1020 NOSIG RMK BLU BLU N (360°) 10.4mph 20°C 10°C
2/06/20 09:50 EGDM 020850Z 34010KT CAVOK 19/12 Q1021 NOSIG RMK BLU BLU NNW (340°) 11.5mph 19°C 12°C
2/06/20 09:20 EGDM 020820Z 34009KT CAVOK 18/11 Q1021 NOSIG RMK BLU BLU NNW (340°) 10.4mph 18°C 11°C
2/06/20 08:50 EGDM 020750Z 35009KT CAVOK 17/11 Q1021 NOSIG RMK BLU BLU N (350°) 10.4mph 17°C 11°C
2/06/20 07:50 EGDM 020650Z 35005KT CAVOK 15/11 Q1021 RMK BLU N (350°) 5.8mph 15°C 11°C
2/06/20 06:50 EGDM 020550Z AUTO 33007KT //// NCD 13/10 Q1021 NNW (330°) 8.1mph 13°C 10°C
2/06/20 05:50 EGDM 020450Z AUTO 34006KT //// NCD 12/09 Q1021 NNW (340°) 6.9mph 12°C 9°C
2/06/20 04:50 EGDM 020350Z AUTO 35005KT //// NCD 12/09 Q1021 N (350°) 5.8mph 12°C 9°C
2/06/20 03:50 EGDM 020250Z AUTO 35005KT //// NCD 13/09 Q1021 N (350°) 5.8mph 13°C 9°C
2/06/20 02:50 EGDM 020150Z AUTO 04004KT //// NCD 15/07 Q1021 NE (40°) 4.6mph 15°C 7°C
2/06/20 01:50 EGDM 020050Z AUTO 07006KT //// NCD 16/08 Q1022 ENE (70°) 6.9mph 16°C 8°C
2/06/20 00:50 EGDM 012350Z AUTO 06005KT //// NCD 15/09 Q1022 ENE (60°) 5.8mph 15°C 9°C
1/06/20 23:50 EGDM 012250Z AUTO 07006KT //// NCD 14/08 Q1022 ENE (70°) 6.9mph 14°C 8°C